Terminal Aerodrome Forecast
Issued by NWS

Home | Current Version | Previous Version | Text Only | Print | Product List | Glossary On
Versions: 1 2 3 4 5 6 7 8 9 10 11 12 13 14 15
000
FTUS43 KICT 172300
TAFRSL
TAF
KRSL 172322Z 1800/1824 VRB03KT P6SM SKC
     FM180200 17008KT P6SM SKC
     FM181100 18012KT 5SM BR SCT020
     FM181700 18019G27KT P6SM SCT035=

USA.gov is the U.S. government's official web portal to all federal, state and local government web resources and services.